sensor_id;sensor_type;location;lat;lon;timestamp;temperature;humidity
25616;DHT22;13482;48.234;13.006;2024-01-30T00:10:02;2.60;65.70
25616;DHT22;13482;48.234;13.006;2024-01-30T00:15:06;2.50;65.70
25616;DHT22;13482;48.234;13.006;2024-01-30T00:17:37;2.50;65.80
25616;DHT22;13482;48.234;13.006;2024-01-30T00:20:05;2.40;65.50
25616;DHT22;13482;48.234;13.006;2024-01-30T00:30:48;2.30;65.70
25616;DHT22;13482;48.234;13.006;2024-01-30T00:41:59;2.20;66.10
25616;DHT22;13482;48.234;13.006;2024-01-30T00:44:50;2.20;65.90
25616;DHT22;13482;48.234;13.006;2024-01-30T00:48:32;2.10;66.10
25616;DHT22;13482;48.234;13.006;2024-01-30T00:50:59;2.10;66.40
25616;DHT22;13482;48.234;13.006;2024-01-30T00:53:26;2.00;66.00
25616;DHT22;13482;48.234;13.006;2024-01-30T00:55:52;2.00;66.00
25616;DHT22;13482;48.234;13.006;2024-01-30T00:58:19;2.00;66.10
25616;DHT22;13482;48.234;13.006;2024-01-30T01:00:45;1.90;66.20
25616;DHT22;13482;48.234;13.006;2024-01-30T01:03:14;1.90;66.20
25616;DHT22;13482;48.234;13.006;2024-01-30T01:05:41;1.90;66.40
25616;DHT22;13482;48.234;13.006;2024-01-30T01:08:07;1.90;66.40
25616;DHT22;13482;48.234;13.006;2024-01-30T01:10:49;1.90;66.40
25616;DHT22;13482;48.234;13.006;2024-01-30T01:13:31;1.90;66.60
25616;DHT22;13482;48.234;13.006;2024-01-30T01:15:59;1.90;67.20
25616;DHT22;13482;48.234;13.006;2024-01-30T01:18:26;1.80;66.30
25616;DHT22;13482;48.234;13.006;2024-01-30T01:20:54;1.80;66.60
25616;DHT22;13482;48.234;13.006;2024-01-30T01:23:22;1.70;66.50
25616;DHT22;13482;48.234;13.006;2024-01-30T01:25:50;1.70;66.60
25616;DHT22;13482;48.234;13.006;2024-01-30T01:28:18;1.70;66.60
25616;DHT22;13482;48.234;13.006;2024-01-30T01:30:46;1.70;66.60
25616;DHT22;13482;48.234;13.006;2024-01-30T01:33:16;1.70;66.50
25616;DHT22;13482;48.234;13.006;2024-01-30T01:35:44;1.60;66.50
25616;DHT22;13482;48.234;13.006;2024-01-30T01:38:12;1.60;66.50
25616;DHT22;13482;48.234;13.006;2024-01-30T01:40:39;1.60;66.60
25616;DHT22;13482;48.234;13.006;2024-01-30T01:43:08;1.60;66.70
25616;DHT22;13482;48.234;13.006;2024-01-30T01:45:35;1.50;66.70
25616;DHT22;13482;48.234;13.006;2024-01-30T01:48:03;1.50;66.80
25616;DHT22;13482;48.234;13.006;2024-01-30T01:50:31;1.50;66.80
25616;DHT22;13482;48.234;13.006;2024-01-30T01:53:00;1.50;66.80
25616;DHT22;13482;48.234;13.006;2024-01-30T01:55:29;1.50;66.90
25616;DHT22;13482;48.234;13.006;2024-01-30T01:57:59;1.40;67.00
25616;DHT22;13482;48.234;13.006;2024-01-30T02:00:27;1.40;67.00
25616;DHT22;13482;48.234;13.006;2024-01-30T02:02:57;1.40;67.00
25616;DHT22;13482;48.234;13.006;2024-01-30T02:05:24;1.40;67.00
25616;DHT22;13482;48.234;13.006;2024-01-30T02:07:53;1.40;66.70
25616;DHT22;13482;48.234;13.006;2024-01-30T02:10:22;1.30;66.70
25616;DHT22;13482;48.234;13.006;2024-01-30T02:12:50;1.30;66.60
25616;DHT22;13482;48.234;13.006;2024-01-30T02:15:17;1.30;66.60
25616;DHT22;13482;48.234;13.006;2024-01-30T02:17:46;1.30;66.40
25616;DHT22;13482;48.234;13.006;2024-01-30T02:20:13;1.20;66.40
25616;DHT22;13482;48.234;13.006;2024-01-30T02:22:42;1.20;66.40
25616;DHT22;13482;48.234;13.006;2024-01-30T02:25:11;1.20;66.40
25616;DHT22;13482;48.234;13.006;2024-01-30T02:27:38;1.20;66.40
25616;DHT22;13482;48.234;13.006;2024-01-30T02:30:07;1.10;66.30
25616;DHT22;13482;48.234;13.006;2024-01-30T02:32:35;1.10;66.40
25616;DHT22;13482;48.234;13.006;2024-01-30T02:35:03;1.10;66.30
25616;DHT22;13482;48.234;13.006;2024-01-30T02:37:32;1.10;66.20
25616;DHT22;13482;48.234;13.006;2024-01-30T02:40:00;1.00;66.10
25616;DHT22;13482;48.234;13.006;2024-01-30T02:42:28;1.00;66.10
25616;DHT22;13482;48.234;13.006;2024-01-30T02:44:55;0.90;66.10
25616;DHT22;13482;48.234;13.006;2024-01-30T02:47:23;0.90;66.10
25616;DHT22;13482;48.234;13.006;2024-01-30T02:49:51;0.90;66.30
25616;DHT22;13482;48.234;13.006;2024-01-30T02:52:22;0.80;66.30
25616;DHT22;13482;48.234;13.006;2024-01-30T02:54:50;0.80;66.50
25616;DHT22;13482;48.234;13.006;2024-01-30T02:57:17;0.80;66.60
25616;DHT22;13482;48.234;13.006;2024-01-30T02:59:45;0.80;66.70
25616;DHT22;13482;48.234;13.006;2024-01-30T03:02:12;0.70;66.70
25616;DHT22;13482;48.234;13.006;2024-01-30T03:04:43;0.70;66.60
25616;DHT22;13482;48.234;13.006;2024-01-30T03:07:11;0.70;66.50
25616;DHT22;13482;48.234;13.006;2024-01-30T03:09:38;0.70;66.50
25616;DHT22;13482;48.234;13.006;2024-01-30T03:12:06;0.60;66.50
25616;DHT22;13482;48.234;13.006;2024-01-30T03:14:37;0.60;66.40
25616;DHT22;13482;48.234;13.006;2024-01-30T03:17:05;0.60;66.40
25616;DHT22;13482;48.234;13.006;2024-01-30T03:19:32;0.60;66.30
25616;DHT22;13482;48.234;13.006;2024-01-30T03:22:00;0.60;66.40
25616;DHT22;13482;48.234;13.006;2024-01-30T03:24:28;0.60;66.40
25616;DHT22;13482;48.234;13.006;2024-01-30T03:26:55;0.50;66.70
25616;DHT22;13482;48.234;13.006;2024-01-30T03:29:23;0.50;66.80
25616;DHT22;13482;48.234;13.006;2024-01-30T03:31:50;0.50;66.50
25616;DHT22;13482;48.234;13.006;2024-01-30T03:34:18;0.50;66.50
25616;DHT22;13482;48.234;13.006;2024-01-30T03:36:46;0.50;66.40
25616;DHT22;13482;48.234;13.006;2024-01-30T03:39:13;0.40;66.30
25616;DHT22;13482;48.234;13.006;2024-01-30T03:41:43;0.40;66.40
25616;DHT22;13482;48.234;13.006;2024-01-30T03:44:11;0.40;66.60
25616;DHT22;13482;48.234;13.006;2024-01-30T03:46:38;0.30;66.70
25616;DHT22;13482;48.234;13.006;2024-01-30T03:49:06;0.30;66.80
25616;DHT22;13482;48.234;13.006;2024-01-30T03:51:34;0.30;66.90
25616;DHT22;13482;48.234;13.006;2024-01-30T03:54:01;0.30;66.70
25616;DHT22;13482;48.234;13.006;2024-01-30T03:56:29;0.30;66.60
25616;DHT22;13482;48.234;13.006;2024-01-30T04:01:31;0.30;66.50
25616;DHT22;13482;48.234;13.006;2024-01-30T04:03:59;0.30;66.50
25616;DHT22;13482;48.234;13.006;2024-01-30T04:06:27;0.20;66.60
25616;DHT22;13482;48.234;13.006;2024-01-30T04:08:55;0.20;66.50
25616;DHT22;13482;48.234;13.006;2024-01-30T04:11:23;0.20;66.70
25616;DHT22;13482;48.234;13.006;2024-01-30T04:13:50;0.20;66.90
25616;DHT22;13482;48.234;13.006;2024-01-30T04:16:22;0.20;67.00
25616;DHT22;13482;48.234;13.006;2024-01-30T04:18:52;0.20;67.10
25616;DHT22;13482;48.234;13.006;2024-01-30T04:21:21;0.20;67.10
25616;DHT22;13482;48.234;13.006;2024-01-30T04:23:51;0.20;67.40
25616;DHT22;13482;48.234;13.006;2024-01-30T04:26:18;0.20;67.70
25616;DHT22;13482;48.234;13.006;2024-01-30T04:34:10;0.20;67.80
25616;DHT22;13482;48.234;13.006;2024-01-30T04:36:38;0.20;67.90
25616;DHT22;13482;48.234;13.006;2024-01-30T04:39:07;0.20;68.00
25616;DHT22;13482;48.234;13.006;2024-01-30T04:41:35;0.20;68.10
25616;DHT22;13482;48.234;13.006;2024-01-30T04:44:06;0.20;68.10
25616;DHT22;13482;48.234;13.006;2024-01-30T04:46:33;0.20;68.10
25616;DHT22;13482;48.234;13.006;2024-01-30T04:54:46;0.30;67.90
25616;DHT22;13482;48.234;13.006;2024-01-30T04:57:14;0.30;67.90
25616;DHT22;13482;48.234;13.006;2024-01-30T04:59:42;0.30;67.90
25616;DHT22;13482;48.234;13.006;2024-01-30T05:02:09;0.30;67.80
25616;DHT22;13482;48.234;13.006;2024-01-30T05:15:50;0.40;67.50
25616;DHT22;13482;48.234;13.006;2024-01-30T05:18:18;0.40;67.50
25616;DHT22;13482;48.234;13.006;2024-01-30T05:20:46;0.30;67.40
25616;DHT22;13482;48.234;13.006;2024-01-30T05:23:14;0.30;67.50
25616;DHT22;13482;48.234;13.006;2024-01-30T05:25:41;0.30;67.30
25616;DHT22;13482;48.234;13.006;2024-01-30T05:28:09;0.30;67.30
25616;DHT22;13482;48.234;13.006;2024-01-30T05:30:37;0.30;67.20
25616;DHT22;13482;48.234;13.006;2024-01-30T05:33:04;0.30;67.10
25616;DHT22;13482;48.234;13.006;2024-01-30T05:35:32;0.30;67.00
25616;DHT22;13482;48.234;13.006;2024-01-30T05:38:00;0.20;67.00
25616;DHT22;13482;48.234;13.006;2024-01-30T05:40:27;0.20;66.90
25616;DHT22;13482;48.234;13.006;2024-01-30T05:42:54;0.20;66.90
25616;DHT22;13482;48.234;13.006;2024-01-30T05:45:22;0.20;67.00
25616;DHT22;13482;48.234;13.006;2024-01-30T05:47:50;0.10;66.80
25616;DHT22;13482;48.234;13.006;2024-01-30T05:50:17;0.10;66.80
25616;DHT22;13482;48.234;13.006;2024-01-30T05:52:45;0.10;66.80
25616;DHT22;13482;48.234;13.006;2024-01-30T05:55:13;0.00;66.90
25616;DHT22;13482;48.234;13.006;2024-01-30T05:57:40;0.00;67.00
25616;DHT22;13482;48.234;13.006;2024-01-30T06:00:15;0.00;67.20
25616;DHT22;13482;48.234;13.006;2024-01-30T06:03:09;0.00;67.10
25616;DHT22;13482;48.234;13.006;2024-01-30T06:05:54;0.00;67.00
25616;DHT22;13482;48.234;13.006;2024-01-30T06:08:21;-0.10;66.80
25616;DHT22;13482;48.234;13.006;2024-01-30T06:10:49;-0.10;66.80
25616;DHT22;13482;48.234;13.006;2024-01-30T06:13:16;-0.10;66.70
25616;DHT22;13482;48.234;13.006;2024-01-30T06:15:44;-0.20;66.80
25616;DHT22;13482;48.234;13.006;2024-01-30T06:18:12;-0.20;66.70
25616;DHT22;13482;48.234;13.006;2024-01-30T06:20:39;-0.20;66.80
25616;DHT22;13482;48.234;13.006;2024-01-30T06:23:09;-0.20;66.80
25616;DHT22;13482;48.234;13.006;2024-01-30T06:25:37;-0.30;66.70
25616;DHT22;13482;48.234;13.006;2024-01-30T06:28:05;-0.30;66.70
25616;DHT22;13482;48.234;13.006;2024-01-30T06:30:33;-0.30;66.70
25616;DHT22;13482;48.234;13.006;2024-01-30T06:33:00;-0.40;66.60
25616;DHT22;13482;48.234;13.006;2024-01-30T06:35:28;-0.40;66.60
25616;DHT22;13482;48.234;13.006;2024-01-30T06:37:55;-0.40;66.60
25616;DHT22;13482;48.234;13.006;2024-01-30T06:40:23;-0.40;66.60
25616;DHT22;13482;48.234;13.006;2024-01-30T06:42:51;-0.50;66.80
25616;DHT22;13482;48.234;13.006;2024-01-30T06:45:18;-0.50;66.90
25616;DHT22;13482;48.234;13.006;2024-01-30T06:47:49;-0.50;67.00
25616;DHT22;13482;48.234;13.006;2024-01-30T06:50:17;-0.50;67.10
25616;DHT22;13482;48.234;13.006;2024-01-30T06:52:44;-0.60;67.20
25616;DHT22;13482;48.234;13.006;2024-01-30T06:55:12;-0.60;67.20
25616;DHT22;13482;48.234;13.006;2024-01-30T06:57:40;-0.60;67.30
25616;DHT22;13482;48.234;13.006;2024-01-30T07:00:08;-0.60;67.30
25616;DHT22;13482;48.234;13.006;2024-01-30T07:02:36;-0.60;67.40
25616;DHT22;13482;48.234;13.006;2024-01-30T07:05:03;-0.60;67.50
25616;DHT22;13482;48.234;13.006;2024-01-30T07:07:32;-0.60;67.70
25616;DHT22;13482;48.234;13.006;2024-01-30T07:10:00;-0.60;67.70
25616;DHT22;13482;48.234;13.006;2024-01-30T07:12:27;-0.50;67.70
25616;DHT22;13482;48.234;13.006;2024-01-30T07:14:54;-0.50;68.00
25616;DHT22;13482;48.234;13.006;2024-01-30T07:17:23;-0.50;68.10
25616;DHT22;13482;48.234;13.006;2024-01-30T07:19:50;-0.50;68.20
25616;DHT22;13482;48.234;13.006;2024-01-30T07:22:18;-0.50;68.20
25616;DHT22;13482;48.234;13.006;2024-01-30T07:24:45;-0.50;68.30
25616;DHT22;13482;48.234;13.006;2024-01-30T07:27:15;-0.40;68.30
25616;DHT22;13482;48.234;13.006;2024-01-30T07:29:45;-0.40;68.20
25616;DHT22;13482;48.234;13.006;2024-01-30T07:32:12;-0.40;68.10
25616;DHT22;13482;48.234;13.006;2024-01-30T07:34:40;-0.30;68.10
25616;DHT22;13482;48.234;13.006;2024-01-30T07:37:24;-0.30;68.00
25616;DHT22;13482;48.234;13.006;2024-01-30T07:39:52;-0.30;68.10
25616;DHT22;13482;48.234;13.006;2024-01-30T07:42:19;-0.20;68.20
25616;DHT22;13482;48.234;13.006;2024-01-30T07:44:47;-0.20;68.40
25616;DHT22;13482;48.234;13.006;2024-01-30T07:47:14;-0.10;68.40
25616;DHT22;13482;48.234;13.006;2024-01-30T07:49:41;-0.10;68.50
25616;DHT22;13482;48.234;13.006;2024-01-30T07:52:09;0.00;68.50
25616;DHT22;13482;48.234;13.006;2024-01-30T07:58:00;0.20;68.60
25616;DHT22;13482;48.234;13.006;2024-01-30T08:00:28;0.20;68.50
25616;DHT22;13482;48.234;13.006;2024-01-30T08:02:56;0.30;68.50
25616;DHT22;13482;48.234;13.006;2024-01-30T08:05:24;0.30;68.60
25616;DHT22;13482;48.234;13.006;2024-01-30T08:07:52;0.40;68.60
25616;DHT22;13482;48.234;13.006;2024-01-30T08:10:20;0.50;68.60
25616;DHT22;13482;48.234;13.006;2024-01-30T08:12:48;0.60;68.70
25616;DHT22;13482;48.234;13.006;2024-01-30T08:15:15;0.70;68.80
25616;DHT22;13482;48.234;13.006;2024-01-30T08:17:43;0.80;68.90
25616;DHT22;13482;48.234;13.006;2024-01-30T08:20:12;0.80;69.00
25616;DHT22;13482;48.234;13.006;2024-01-30T08:22:41;0.90;69.10
25616;DHT22;13482;48.234;13.006;2024-01-30T08:25:08;1.10;69.30
25616;DHT22;13482;48.234;13.006;2024-01-30T08:27:37;1.10;69.50
25616;DHT22;13482;48.234;13.006;2024-01-30T08:30:09;1.20;69.80
25616;DHT22;13482;48.234;13.006;2024-01-30T08:32:37;1.40;70.00
25616;DHT22;13482;48.234;13.006;2024-01-30T08:35:04;1.50;70.10
25616;DHT22;13482;48.234;13.006;2024-01-30T08:37:34;1.60;70.10
25616;DHT22;13482;48.234;13.006;2024-01-30T08:40:02;1.70;70.30
25616;DHT22;13482;48.234;13.006;2024-01-30T08:42:31;1.90;70.40
25616;DHT22;13482;48.234;13.006;2024-01-30T08:45:00;2.00;70.50
25616;DHT22;13482;48.234;13.006;2024-01-30T08:47:27;2.10;70.60
25616;DHT22;13482;48.234;13.006;2024-01-30T08:49:55;2.30;70.70
25616;DHT22;13482;48.234;13.006;2024-01-30T08:52:22;2.40;70.80
25616;DHT22;13482;48.234;13.006;2024-01-30T08:54:50;2.50;70.90
25616;DHT22;13482;48.234;13.006;2024-01-30T08:57:17;2.70;70.90
25616;DHT22;13482;48.234;13.006;2024-01-30T08:59:45;2.90;71.10
25616;DHT22;13482;48.234;13.006;2024-01-30T09:02:14;3.00;71.30
25616;DHT22;13482;48.234;13.006;2024-01-30T09:04:43;3.20;71.30
25616;DHT22;13482;48.234;13.006;2024-01-30T09:07:11;3.40;71.30
25616;DHT22;13482;48.234;13.006;2024-01-30T09:09:40;3.50;71.40
25616;DHT22;13482;48.234;13.006;2024-01-30T09:12:08;3.70;71.60
25616;DHT22;13482;48.234;13.006;2024-01-30T09:14:40;3.90;71.60
25616;DHT22;13482;48.234;13.006;2024-01-30T09:17:08;4.10;71.60
25616;DHT22;13482;48.234;13.006;2024-01-30T09:19:36;4.20;71.50
25616;DHT22;13482;48.234;13.006;2024-01-30T09:22:04;4.40;71.50
25616;DHT22;13482;48.234;13.006;2024-01-30T09:24:32;4.60;71.60
25616;DHT22;13482;48.234;13.006;2024-01-30T09:26:59;4.80;71.60
25616;DHT22;13482;48.234;13.006;2024-01-30T09:29:27;4.90;71.60
25616;DHT22;13482;48.234;13.006;2024-01-30T09:31:54;5.10;71.60
25616;DHT22;13482;48.234;13.006;2024-01-30T09:34:22;5.30;71.50
25616;DHT22;13482;48.234;13.006;2024-01-30T09:36:50;5.50;71.40
25616;DHT22;13482;48.234;13.006;2024-01-30T09:39:17;5.60;71.00
25616;DHT22;13482;48.234;13.006;2024-01-30T09:42:11;5.80;71.00
25616;DHT22;13482;48.234;13.006;2024-01-30T09:44:45;6.00;71.20
25616;DHT22;13482;48.234;13.006;2024-01-30T09:47:15;6.10;71.10
25616;DHT22;13482;48.234;13.006;2024-01-30T09:49:44;6.30;70.90
25616;DHT22;13482;48.234;13.006;2024-01-30T09:52:12;6.50;70.70
25616;DHT22;13482;48.234;13.006;2024-01-30T09:54:41;6.60;70.40
25616;DHT22;13482;48.234;13.006;2024-01-30T09:57:09;6.70;70.40
25616;DHT22;13482;48.234;13.006;2024-01-30T09:59:41;6.90;70.30
25616;DHT22;13482;48.234;13.006;2024-01-30T10:02:10;7.00;70.30
25616;DHT22;13482;48.234;13.006;2024-01-30T10:04:38;7.20;70.30
25616;DHT22;13482;48.234;13.006;2024-01-30T10:07:06;7.30;70.20
25616;DHT22;13482;48.234;13.006;2024-01-30T10:09:34;7.50;70.00
25616;DHT22;13482;48.234;13.006;2024-01-30T10:12:02;7.60;70.10
25616;DHT22;13482;48.234;13.006;2024-01-30T10:14:30;7.70;69.90
25616;DHT22;13482;48.234;13.006;2024-01-30T10:16:58;7.90;69.70
25616;DHT22;13482;48.234;13.006;2024-01-30T10:19:26;8.00;69.60
25616;DHT22;13482;48.234;13.006;2024-01-30T10:21:53;8.10;69.40
25616;DHT22;13482;48.234;13.006;2024-01-30T10:24:25;8.30;69.40
25616;DHT22;13482;48.234;13.006;2024-01-30T10:26:56;8.40;69.40
25616;DHT22;13482;48.234;13.006;2024-01-30T10:29:24;8.60;69.20
25616;DHT22;13482;48.234;13.006;2024-01-30T10:32:02;8.70;69.00
25616;DHT22;13482;48.234;13.006;2024-01-30T10:34:32;8.80;68.70
25616;DHT22;13482;48.234;13.006;2024-01-30T10:37:08;8.90;68.70
25616;DHT22;13482;48.234;13.006;2024-01-30T10:39:45;9.10;68.70
25616;DHT22;13482;48.234;13.006;2024-01-30T10:42:18;9.20;68.70
25616;DHT22;13482;48.234;13.006;2024-01-30T10:47:25;9.40;68.60
25616;DHT22;13482;48.234;13.006;2024-01-30T10:49:54;9.50;68.40
25616;DHT22;13482;48.234;13.006;2024-01-30T10:52:24;9.60;68.30
25616;DHT22;13482;48.234;13.006;2024-01-30T10:54:57;9.70;68.00
25616;DHT22;13482;48.234;13.006;2024-01-30T10:57:28;9.80;67.90
25616;DHT22;13482;48.234;13.006;2024-01-30T10:59:58;9.90;67.90
25616;DHT22;13482;48.234;13.006;2024-01-30T11:02:28;10.00;68.10
25616;DHT22;13482;48.234;13.006;2024-01-30T11:04:59;10.10;68.00
25616;DHT22;13482;48.234;13.006;2024-01-30T11:07:28;10.30;67.80
25616;DHT22;13482;48.234;13.006;2024-01-30T11:10:04;10.40;67.40
25616;DHT22;13482;48.234;13.006;2024-01-30T11:12:40;10.50;67.50
25616;DHT22;13482;48.234;13.006;2024-01-30T11:15:14;10.60;67.50
25616;DHT22;13482;48.234;13.006;2024-01-30T11:20:19;10.80;67.20
25616;DHT22;13482;48.234;13.006;2024-01-30T11:22:50;10.90;67.10
25616;DHT22;13482;48.234;13.006;2024-01-30T11:25:19;10.90;67.00
25616;DHT22;13482;48.234;13.006;2024-01-30T11:27:50;11.10;66.50
25616;DHT22;13482;48.234;13.006;2024-01-30T11:30:27;11.10;66.80
25616;DHT22;13482;48.234;13.006;2024-01-30T11:33:08;11.20;66.60
25616;DHT22;13482;48.234;13.006;2024-01-30T11:35:43;11.30;66.40
25616;DHT22;13482;48.234;13.006;2024-01-30T11:38:14;11.40;66.40
25616;DHT22;13482;48.234;13.006;2024-01-30T11:40:44;11.40;66.30
25616;DHT22;13482;48.234;13.006;2024-01-30T11:43:11;11.50;66.40
25616;DHT22;13482;48.234;13.006;2024-01-30T11:45:40;11.60;66.30
25616;DHT22;13482;48.234;13.006;2024-01-30T11:48:08;11.70;66.10
25616;DHT22;13482;48.234;13.006;2024-01-30T11:50:39;11.70;65.80
25616;DHT22;13482;48.234;13.006;2024-01-30T11:53:08;11.80;65.80
25616;DHT22;13482;48.234;13.006;2024-01-30T11:55:36;11.80;65.80
25616;DHT22;13482;48.234;13.006;2024-01-30T11:58:05;11.90;65.70
25616;DHT22;13482;48.234;13.006;2024-01-30T12:00:34;12.00;65.60
25616;DHT22;13482;48.234;13.006;2024-01-30T12:03:03;12.10;65.50
25616;DHT22;13482;48.234;13.006;2024-01-30T12:05:34;12.10;65.40
25616;DHT22;13482;48.234;13.006;2024-01-30T12:08:03;12.20;65.30
25616;DHT22;13482;48.234;13.006;2024-01-30T12:10:30;12.30;65.10
25616;DHT22;13482;48.234;13.006;2024-01-30T12:13:01;12.30;64.90
25616;DHT22;13482;48.234;13.006;2024-01-30T12:15:31;12.40;64.90
25616;DHT22;13482;48.234;13.006;2024-01-30T12:18:07;12.40;64.80
25616;DHT22;13482;48.234;13.006;2024-01-30T12:20:37;12.50;64.80
25616;DHT22;13482;48.234;13.006;2024-01-30T12:23:05;12.50;64.90
25616;DHT22;13482;48.234;13.006;2024-01-30T12:25:33;12.60;64.80
25616;DHT22;13482;48.234;13.006;2024-01-30T12:28:02;12.60;64.70
25616;DHT22;13482;48.234;13.006;2024-01-30T12:30:35;12.70;64.50
25616;DHT22;13482;48.234;13.006;2024-01-30T12:33:04;12.80;64.50
25616;DHT22;13482;48.234;13.006;2024-01-30T12:35:34;12.80;64.30
25616;DHT22;13482;48.234;13.006;2024-01-30T12:38:15;12.80;64.20
25616;DHT22;13482;48.234;13.006;2024-01-30T12:40:45;12.90;64.10
25616;DHT22;13482;48.234;13.006;2024-01-30T12:43:15;12.90;64.10
25616;DHT22;13482;48.234;13.006;2024-01-30T12:46:00;13.00;64.00
25616;DHT22;13482;48.234;13.006;2024-01-30T12:48:29;13.00;64.00
25616;DHT22;13482;48.234;13.006;2024-01-30T12:51:02;13.10;63.80
25616;DHT22;13482;48.234;13.006;2024-01-30T12:53:32;13.10;63.80
25616;DHT22;13482;48.234;13.006;2024-01-30T12:56:02;13.20;63.80
25616;DHT22;13482;48.234;13.006;2024-01-30T12:58:33;13.20;63.70
25616;DHT22;13482;48.234;13.006;2024-01-30T13:01:01;13.30;63.50
25616;DHT22;13482;48.234;13.006;2024-01-30T13:03:30;13.30;63.40
25616;DHT22;13482;48.234;13.006;2024-01-30T13:06:05;13.30;63.40
25616;DHT22;13482;48.234;13.006;2024-01-30T13:08:34;13.40;62.70
25616;DHT22;13482;48.234;13.006;2024-01-30T13:11:02;13.40;63.40
25616;DHT22;13482;48.234;13.006;2024-01-30T13:13:32;13.40;63.40
25616;DHT22;13482;48.234;13.006;2024-01-30T13:16:07;13.40;63.20
25616;DHT22;13482;48.234;13.006;2024-01-30T13:18:39;13.50;63.10
25616;DHT22;13482;48.234;13.006;2024-01-30T13:21:12;13.50;63.10
25616;DHT22;13482;48.234;13.006;2024-01-30T13:24:14;13.50;63.10
25616;DHT22;13482;48.234;13.006;2024-01-30T13:26:45;13.50;63.20
25616;DHT22;13482;48.234;13.006;2024-01-30T13:56:56;14.10;62.80
25616;DHT22;13482;48.234;13.006;2024-01-30T13:59:44;14.20;62.60
25616;DHT22;13482;48.234;13.006;2024-01-30T14:02:35;14.20;62.50
25616;DHT22;13482;48.234;13.006;2024-01-30T14:05:48;14.30;62.10
25616;DHT22;13482;48.234;13.006;2024-01-30T14:08:25;14.30;62.50
25616;DHT22;13482;48.234;13.006;2024-01-30T14:11:04;14.40;62.50
25616;DHT22;13482;48.234;13.006;2024-01-30T14:13:47;14.50;62.30
25616;DHT22;13482;48.234;13.006;2024-01-30T14:16:24;14.50;62.70
25616;DHT22;13482;48.234;13.006;2024-01-30T14:19:17;14.70;62.50
25616;DHT22;13482;48.234;13.006;2024-01-30T14:21:54;14.80;62.70
25616;DHT22;13482;48.234;13.006;2024-01-30T14:24:26;14.90;62.40
25616;DHT22;13482;48.234;13.006;2024-01-30T14:27:37;15.10;62.60
25616;DHT22;13482;48.234;13.006;2024-01-30T14:30:11;15.30;62.50
25616;DHT22;13482;48.234;13.006;2024-01-30T14:32:42;15.40;62.50
25616;DHT22;13482;48.234;13.006;2024-01-30T14:35:24;15.60;62.20
25616;DHT22;13482;48.234;13.006;2024-01-30T14:38:15;15.70;62.20
25616;DHT22;13482;48.234;13.006;2024-01-30T14:41:25;15.90;61.80
25616;DHT22;13482;48.234;13.006;2024-01-30T14:43:54;16.10;62.30
25616;DHT22;13482;48.234;13.006;2024-01-30T14:46:25;16.30;62.00
25616;DHT22;13482;48.234;13.006;2024-01-30T14:49:03;16.40;61.60
25616;DHT22;13482;48.234;13.006;2024-01-30T14:51:36;16.50;61.20
25616;DHT22;13482;48.234;13.006;2024-01-30T14:54:06;16.60;61.00
25616;DHT22;13482;48.234;13.006;2024-01-30T14:56:35;16.70;60.70
25616;DHT22;13482;48.234;13.006;2024-01-30T14:59:08;16.70;60.40
25616;DHT22;13482;48.234;13.006;2024-01-30T15:01:36;16.80;60.10
25616;DHT22;13482;48.234;13.006;2024-01-30T15:04:08;16.70;59.70
25616;DHT22;13482;48.234;13.006;2024-01-30T15:06:46;16.70;59.60
25616;DHT22;13482;48.234;13.006;2024-01-30T15:09:15;16.70;59.30
25616;DHT22;13482;48.234;13.006;2024-01-30T15:11:55;16.60;59.10
25616;DHT22;13482;48.234;13.006;2024-01-30T15:14:24;16.50;58.80
25616;DHT22;13482;48.234;13.006;2024-01-30T15:16:58;16.40;58.60
25616;DHT22;13482;48.234;13.006;2024-01-30T15:19:27;16.30;58.40
25616;DHT22;13482;48.234;13.006;2024-01-30T15:22:01;16.20;58.40
25616;DHT22;13482;48.234;13.006;2024-01-30T15:24:34;16.00;58.30
25616;DHT22;13482;48.234;13.006;2024-01-30T15:27:03;15.80;58.10
25616;DHT22;13482;48.234;13.006;2024-01-30T15:29:31;15.60;57.90
25616;DHT22;13482;48.234;13.006;2024-01-30T15:32:00;15.40;57.80
25616;DHT22;13482;48.234;13.006;2024-01-30T15:34:28;15.10;57.80
25616;DHT22;13482;48.234;13.006;2024-01-30T15:42:19;14.40;57.90
25616;DHT22;13482;48.234;13.006;2024-01-30T15:44:57;14.20;57.90
25616;DHT22;13482;48.234;13.006;2024-01-30T15:47:29;13.90;57.90
25616;DHT22;13482;48.234;13.006;2024-01-30T15:49:56;13.70;58.00
25616;DHT22;13482;48.234;13.006;2024-01-30T15:52:24;13.50;58.00
25616;DHT22;13482;48.234;13.006;2024-01-30T15:54:52;13.30;58.10
25616;DHT22;13482;48.234;13.006;2024-01-30T15:57:20;13.10;58.10
25616;DHT22;13482;48.234;13.006;2024-01-30T15:59:54;12.90;58.20
25616;DHT22;13482;48.234;13.006;2024-01-30T16:02:23;12.70;58.40
25616;DHT22;13482;48.234;13.006;2024-01-30T16:04:51;12.50;58.50
25616;DHT22;13482;48.234;13.006;2024-01-30T16:07:19;12.40;58.50
25616;DHT22;13482;48.234;13.006;2024-01-30T16:09:49;12.20;58.50
25616;DHT22;13482;48.234;13.006;2024-01-30T16:12:16;12.00;58.60
25616;DHT22;13482;48.234;13.006;2024-01-30T16:14:44;11.90;58.70
25616;DHT22;13482;48.234;13.006;2024-01-30T16:17:11;11.70;58.80
25616;DHT22;13482;48.234;13.006;2024-01-30T16:19:39;11.60;58.80
25616;DHT22;13482;48.234;13.006;2024-01-30T16:22:08;11.40;58.90
25616;DHT22;13482;48.234;13.006;2024-01-30T16:24:43;11.30;59.10
25616;DHT22;13482;48.234;13.006;2024-01-30T16:27:11;11.10;59.00
25616;DHT22;13482;48.234;13.006;2024-01-30T16:29:39;10.90;59.20
25616;DHT22;13482;48.234;13.006;2024-01-30T16:32:24;10.80;59.30
25616;DHT22;13482;48.234;13.006;2024-01-30T16:34:52;10.70;59.30
25616;DHT22;13482;48.234;13.006;2024-01-30T16:37:20;10.50;59.50
25616;DHT22;13482;48.234;13.006;2024-01-30T16:39:47;10.40;59.50
25616;DHT22;13482;48.234;13.006;2024-01-30T16:42:18;10.30;59.50
25616;DHT22;13482;48.234;13.006;2024-01-30T16:44:46;10.20;59.60
25616;DHT22;13482;48.234;13.006;2024-01-30T16:47:14;10.10;59.60
25616;DHT22;13482;48.234;13.006;2024-01-30T16:49:41;9.90;59.70
25616;DHT22;13482;48.234;13.006;2024-01-30T16:52:09;9.80;59.70
25616;DHT22;13482;48.234;13.006;2024-01-30T16:54:36;9.70;59.70
25616;DHT22;13482;48.234;13.006;2024-01-30T16:57:04;9.60;59.80
25616;DHT22;13482;48.234;13.006;2024-01-30T16:59:34;9.50;59.90
25616;DHT22;13482;48.234;13.006;2024-01-30T17:02:01;9.40;60.00
25616;DHT22;13482;48.234;13.006;2024-01-30T17:04:30;9.20;60.10
25616;DHT22;13482;48.234;13.006;2024-01-30T17:07:00;9.10;60.10
25616;DHT22;13482;48.234;13.006;2024-01-30T17:09:30;9.00;60.20
25616;DHT22;13482;48.234;13.006;2024-01-30T17:11:59;8.90;60.30
25616;DHT22;13482;48.234;13.006;2024-01-30T17:14:30;8.80;60.30
25616;DHT22;13482;48.234;13.006;2024-01-30T17:16:58;8.70;60.30
25616;DHT22;13482;48.234;13.006;2024-01-30T17:19:33;8.60;60.30